createdAt,value
2022-10-15T00:00:23.559Z,13.53
2022-10-15T00:02:26.273Z,13.52
2022-10-15T00:04:28.831Z,13.52
2022-10-15T00:06:31.487Z,13.55
2022-10-15T00:08:34.232Z,13.54
2022-10-15T00:10:37.548Z,13.58
2022-10-15T00:12:40.400Z,13.57
2022-10-15T00:14:44.310Z,13.57
2022-10-15T00:16:47.297Z,13.59
2022-10-15T00:18:51.592Z,13.60
2022-10-15T00:20:54.150Z,13.61
2022-10-15T00:22:56.748Z,13.62
2022-10-15T00:24:59.502Z,13.64
2022-10-15T00:27:02.094Z,13.65
2022-10-15T00:29:05.699Z,13.67
2022-10-15T00:31:12.252Z,13.65
2022-10-15T00:33:14.808Z,13.71
2022-10-15T00:35:17.432Z,13.69
2022-10-15T00:37:21.270Z,13.73
2022-10-15T00:39:23.841Z,13.71
2022-10-15T00:41:30.472Z,13.69
2022-10-15T00:43:36.785Z,13.72
2022-10-15T00:45:39.363Z,13.72
2022-10-15T00:47:47.912Z,13.76
2022-10-15T00:49:57.608Z,13.76
2022-10-15T00:52:07.519Z,13.72
2022-10-15T00:54:11.207Z,13.74
2022-10-15T00:56:15.915Z,13.77
2022-10-15T00:58:27.790Z,13.76
2022-10-15T01:00:30.508Z,13.81
2022-10-15T01:02:33.364Z,13.80
2022-10-15T01:04:38.546Z,13.78
2022-10-15T01:06:41.138Z,13.77
2022-10-15T01:08:43.958Z,13.76
2022-10-15T01:10:53.874Z,13.81
2022-10-15T01:13:04.158Z,13.80
2022-10-15T01:15:16.465Z,13.80
2022-10-15T01:17:23.218Z,13.79
2022-10-15T01:19:41.798Z,13.79
2022-10-15T01:21:51.730Z,13.83
2022-10-15T01:24:24.796Z,13.78
2022-10-15T01:26:56.103Z,13.81
2022-10-15T01:29:11.511Z,13.80
2022-10-15T01:31:25.310Z,13.78
2022-10-15T01:33:36.708Z,13.78
2022-10-15T01:35:48.363Z,13.77
2022-10-15T01:37:56.790Z,13.77
2022-10-15T01:40:06.184Z,13.76
2022-10-15T01:42:16.471Z,13.75
2022-10-15T01:44:24.269Z,13.72
2022-10-15T01:46:34.706Z,13.74
2022-10-15T01:48:39.569Z,13.73
2022-10-15T01:50:46.628Z,13.77
2022-10-15T01:52:51.371Z,13.74
2022-10-15T01:54:55.130Z,13.77
2022-10-15T01:56:59.770Z,13.74
2022-10-15T01:59:05.607Z,13.78
2022-10-15T02:01:08.639Z,13.80
2022-10-15T02:03:12.638Z,13.79
2022-10-15T02:05:19.037Z,13.80
2022-10-15T02:07:32.139Z,13.83
2022-10-15T02:09:43.978Z,13.85
2022-10-15T02:11:57.104Z,13.85
2022-10-15T02:14:04.818Z,13.89
2022-10-15T02:16:14.942Z,13.90
2022-10-15T02:18:25.838Z,13.89
2022-10-15T02:20:34.696Z,13.91
2022-10-15T02:22:44.829Z,13.90
2022-10-15T02:24:55.346Z,13.90
2022-10-15T02:27:00.411Z,13.96
2022-10-15T02:29:06.601Z,13.98
2022-10-15T02:31:11.487Z,13.97
2022-10-15T02:33:15.855Z,13.95
2022-10-15T02:35:22.332Z,14.00
2022-10-15T02:37:28.685Z,14.00
2022-10-15T02:39:31.792Z,14.02
2022-10-15T02:41:36.377Z,14.02
2022-10-15T02:43:40.315Z,14.03
2022-10-15T02:45:43.183Z,14.10
2022-10-15T02:47:46.081Z,14.08
2022-10-15T02:49:48.663Z,14.12
2022-10-15T02:51:52.605Z,14.10
2022-10-15T02:53:55.251Z,14.10
2022-10-15T02:55:57.837Z,14.09
2022-10-15T02:58:00.405Z,14.08
2022-10-15T03:00:03.007Z,14.10
2022-10-15T03:02:05.803Z,14.13
2022-10-15T03:04:08.528Z,14.20
2022-10-15T03:06:11.199Z,14.18
2022-10-15T03:08:15.162Z,14.14
2022-10-15T03:10:17.839Z,14.18
2022-10-15T03:12:23.239Z,14.21
2022-10-15T03:14:25.936Z,14.21
2022-10-15T03:16:28.544Z,14.23
2022-10-15T03:18:31.118Z,14.23
2022-10-15T03:20:33.807Z,14.27
2022-10-15T03:22:36.497Z,14.31
2022-10-15T03:24:40.464Z,14.29
2022-10-15T03:26:43.070Z,14.27
2022-10-15T03:28:45.761Z,14.32
2022-10-15T03:30:48.822Z,14.32
2022-10-15T03:32:51.520Z,14.28
2022-10-15T03:34:54.150Z,14.36
2022-10-15T03:36:56.744Z,14.35
2022-10-15T03:38:59.322Z,14.37
2022-10-15T03:41:03.626Z,14.39
2022-10-15T03:43:06.759Z,14.44
2022-10-15T03:45:10.622Z,14.42
2022-10-15T03:47:13.177Z,14.38
2022-10-15T03:49:15.823Z,14.41
2022-10-15T03:51:22.703Z,14.43
2022-10-15T03:53:27.294Z,14.41
2022-10-15T03:55:29.850Z,14.43
2022-10-15T03:57:33.772Z,14.41
2022-10-15T03:59:36.410Z,14.44
2022-10-15T04:01:39.002Z,14.44
2022-10-15T04:03:42.017Z,14.43
2022-10-15T04:05:53.850Z,14.49
2022-10-15T04:07:58.205Z,14.50
2022-10-15T04:10:00.779Z,14.46
2022-10-15T04:12:03.345Z,14.57
2022-10-15T04:14:07.816Z,14.51
2022-10-15T04:16:10.387Z,14.53
2022-10-15T04:18:13.908Z,14.49
2022-10-15T04:20:16.631Z,14.52
2022-10-15T04:22:20.041Z,14.56
2022-10-15T04:24:22.666Z,14.57
2022-10-15T04:26:25.305Z,14.53
2022-10-15T04:28:28.276Z,14.57
2022-10-15T04:30:32.403Z,14.54
2022-10-15T04:32:34.982Z,14.55
2022-10-15T04:34:38.959Z,14.54
2022-10-15T04:36:41.532Z,14.60
2022-10-15T04:38:44.301Z,14.60
2022-10-15T04:40:46.873Z,14.57
2022-10-15T04:42:49.459Z,14.57
2022-10-15T04:44:52.111Z,14.56
2022-10-15T04:46:56.054Z,14.58
2022-10-15T04:48:58.898Z,14.58
2022-10-15T04:51:04.916Z,14.59
2022-10-15T04:53:07.547Z,14.59
2022-10-15T04:55:10.616Z,14.55
2022-10-15T04:57:13.346Z,14.56
2022-10-15T04:59:16.006Z,14.56
2022-10-15T05:01:21.046Z,14.65
2022-10-15T05:03:25.143Z,14.57
2022-10-15T05:05:27.802Z,14.59
2022-10-15T05:07:30.411Z,14.56
2022-10-15T05:09:36.735Z,14.60
2022-10-15T05:11:40.073Z,14.52
2022-10-15T05:13:43.414Z,14.55
2022-10-15T05:15:46.014Z,14.48
2022-10-15T05:17:48.664Z,14.47
2022-10-15T05:19:52.654Z,14.43
2022-10-15T05:21:55.237Z,14.40
2022-10-15T05:23:58.244Z,14.38
2022-10-15T05:26:01.095Z,14.41
2022-10-15T05:28:03.694Z,14.39
2022-10-15T05:30:07.223Z,14.44
2022-10-15T05:32:09.875Z,14.41
2022-10-15T05:34:13.629Z,14.44
2022-10-15T05:36:19.852Z,14.42
2022-10-15T05:38:22.497Z,14.38
2022-10-15T05:40:25.225Z,14.44
2022-10-15T05:42:27.876Z,14.48
2022-10-15T05:44:30.466Z,14.55
2022-10-15T05:46:33.074Z,14.56
2022-10-15T05:48:35.908Z,14.47
2022-10-15T05:50:38.502Z,14.54
2022-10-15T05:52:42.431Z,14.49
2022-10-15T05:54:45.088Z,14.48
2022-10-15T05:56:47.711Z,14.48
2022-10-15T05:58:51.180Z,14.49
2022-10-15T06:00:57.837Z,14.42
2022-10-15T06:03:00.429Z,14.42
2022-10-15T06:05:03.245Z,14.49
2022-10-15T06:07:05.937Z,14.43
2022-10-15T06:09:10.270Z,14.41
2022-10-15T06:11:13.177Z,14.41
2022-10-15T06:13:18.194Z,14.46
2022-10-15T06:15:21.151Z,14.43
2022-10-15T06:17:24.032Z,14.42
2022-10-15T06:19:26.915Z,14.43
2022-10-15T06:21:29.511Z,14.43
2022-10-15T06:23:32.155Z,14.47
2022-10-15T06:25:36.146Z,14.49
2022-10-15T06:27:38.892Z,14.48
2022-10-15T06:29:41.550Z,14.50
2022-10-15T06:31:44.233Z,14.41
2022-10-15T06:33:46.880Z,14.38
2022-10-15T06:35:49.552Z,14.39
2022-10-15T06:37:52.541Z,14.41
2022-10-15T06:39:55.159Z,14.36
2022-10-15T06:41:59.148Z,14.38
2022-10-15T06:44:01.741Z,14.37
2022-10-15T06:46:06.127Z,14.46
2022-10-15T06:48:08.779Z,14.44
2022-10-15T06:50:12.120Z,14.33
2022-10-15T06:52:14.769Z,14.36
2022-10-15T06:54:17.426Z,14.40
2022-10-15T06:56:20.078Z,14.41
2022-10-15T06:58:24.033Z,14.38
2022-10-15T07:00:27.078Z,14.38
2022-10-15T07:02:29.826Z,14.31
2022-10-15T07:04:32.433Z,14.30
2022-10-15T07:06:35.722Z,14.32
2022-10-15T07:08:38.571Z,14.43
2022-10-15T07:10:41.208Z,14.35
2022-10-15T07:12:43.875Z,14.31
2022-10-15T07:14:47.873Z,14.45
2022-10-15T07:16:50.495Z,14.43
2022-10-15T07:18:53.258Z,14.40
2022-10-15T07:20:57.895Z,14.43
2022-10-15T07:23:02.084Z,14.39
2022-10-15T07:25:05.013Z,14.41
2022-10-15T07:27:08.143Z,14.40
2022-10-15T07:29:20.994Z,14.35
2022-10-15T07:31:25.229Z,14.42
2022-10-15T07:33:27.935Z,14.47
2022-10-15T07:35:30.564Z,14.46
2022-10-15T07:37:33.450Z,14.45
2022-10-15T07:39:39.167Z,14.51
2022-10-15T07:41:43.584Z,14.55
2022-10-15T07:43:46.365Z,14.60
2022-10-15T07:45:50.376Z,14.55
2022-10-15T07:47:55.316Z,14.49
2022-10-15T07:49:57.959Z,14.45
2022-10-15T07:52:00.644Z,14.60
2022-10-15T07:54:03.329Z,14.52
2022-10-15T07:56:08.016Z,14.63
2022-10-15T07:58:10.721Z,14.53
2022-10-15T08:00:14.028Z,14.59
2022-10-15T08:02:17.313Z,14.61
2022-10-15T08:04:21.389Z,14.74
2022-10-15T08:06:24.028Z,14.69
2022-10-15T08:08:26.694Z,14.75
2022-10-15T08:10:29.378Z,14.83
2022-10-15T08:12:32.132Z,14.83
2022-10-15T08:14:35.393Z,14.89
2022-10-15T08:16:38.042Z,14.92
2022-10-15T08:18:41.334Z,14.90
2022-10-15T08:20:45.423Z,14.82
2022-10-15T08:22:48.092Z,14.90
2022-10-15T08:24:51.399Z,14.92
2022-10-15T08:26:54.032Z,15.01
2022-10-15T08:28:56.850Z,15.03
2022-10-15T08:31:04.298Z,15.01
2022-10-15T08:33:08.431Z,14.84
2022-10-15T08:35:11.013Z,14.98
2022-10-15T08:39:22.572Z,14.98
2022-10-15T08:41:30.806Z,15.02
2022-10-15T08:43:38.479Z,15.00
2022-10-15T08:45:46.072Z,14.95
2022-10-15T08:47:56.298Z,15.13
2022-10-15T08:50:01.081Z,15.01
2022-10-15T08:52:15.733Z,15.14
2022-10-15T08:54:20.338Z,15.13
2022-10-15T08:56:27.944Z,15.14
2022-10-15T08:58:42.326Z,15.09
2022-10-15T09:00:51.705Z,15.11
2022-10-15T09:03:01.426Z,15.43
2022-10-15T09:05:23.778Z,15.31
2022-10-15T09:07:35.667Z,15.41
2022-10-15T09:09:45.000Z,15.43
2022-10-15T09:11:58.411Z,15.44
2022-10-15T09:14:01.545Z,15.27
2022-10-15T09:16:11.982Z,15.45
2022-10-15T09:18:21.048Z,15.48
2022-10-15T09:20:27.422Z,15.68
2022-10-15T09:22:34.589Z,15.59
2022-10-15T09:24:38.799Z,15.58
2022-10-15T09:26:55.326Z,15.73
2022-10-15T09:29:07.361Z,15.75
2022-10-15T09:31:13.956Z,15.86
2022-10-15T09:33:32.823Z,16.10
2022-10-15T09:35:39.987Z,16.01
2022-10-15T09:37:51.640Z,16.06
2022-10-15T09:40:09.973Z,16.08
2022-10-15T09:42:17.856Z,16.20
2022-10-15T09:44:24.201Z,16.24
2022-10-15T09:46:26.830Z,16.25
2022-10-15T09:48:34.854Z,16.59
2022-10-15T09:50:43.721Z,16.88
2022-10-15T09:53:01.680Z,17.57
2022-10-15T09:55:17.200Z,17.54
2022-10-15T09:57:23.551Z,17.96
2022-10-15T09:59:26.743Z,18.73
2022-10-15T10:01:31.701Z,18.45
2022-10-15T10:03:36.189Z,17.98
2022-10-15T10:05:39.924Z,17.81
2022-10-15T10:07:42.575Z,17.95
2022-10-15T10:09:53.008Z,17.74
2022-10-15T10:12:00.647Z,18.08
2022-10-15T10:14:05.626Z,18.55
2022-10-15T10:16:11.368Z,18.66
2022-10-15T10:18:20.538Z,18.10
2022-10-15T10:20:24.576Z,18.62
2022-10-15T10:22:27.361Z,18.78
2022-10-15T10:24:34.216Z,18.99
2022-10-15T10:26:37.188Z,17.99
2022-10-15T10:28:47.926Z,18.12
2022-10-15T10:31:03.274Z,17.85
2022-10-15T10:33:06.806Z,17.53
2022-10-15T10:35:22.306Z,17.78
2022-10-15T10:37:25.775Z,17.69
2022-10-15T10:39:30.565Z,17.88
2022-10-15T10:41:50.730Z,17.96
2022-10-15T10:43:56.634Z,17.97
2022-10-15T10:46:01.420Z,17.76
2022-10-15T10:48:19.831Z,18.08
2022-10-15T10:50:32.252Z,18.18
2022-10-15T10:52:35.850Z,18.08
2022-10-15T10:54:38.732Z,18.22
2022-10-15T10:56:44.261Z,18.58
2022-10-15T10:58:47.199Z,18.73
2022-10-15T11:00:53.262Z,18.23
2022-10-15T11:02:56.212Z,18.53
2022-10-15T11:04:58.971Z,18.30
2022-10-15T11:07:05.383Z,18.12
2022-10-15T11:09:12.833Z,18.24
2022-10-15T11:11:24.913Z,18.37
2022-10-15T11:13:40.092Z,18.32
2022-10-15T11:15:50.458Z,18.43
2022-10-15T11:18:05.820Z,18.26
2022-10-15T11:22:52.755Z,18.10
2022-10-15T11:25:07.527Z,18.07
2022-10-15T11:27:23.450Z,18.28
2022-10-15T11:29:33.097Z,17.90
2022-10-15T11:31:55.075Z,18.01
2022-10-15T11:34:21.998Z,17.93
2022-10-15T11:36:37.243Z,17.85
2022-10-15T11:38:46.904Z,17.95
2022-10-15T11:41:04.833Z,18.02
2022-10-15T11:43:18.796Z,17.88
2022-10-15T11:45:58.950Z,18.04
2022-10-15T11:48:06.831Z,17.80
2022-10-15T11:50:28.778Z,17.70
2022-10-15T11:52:48.970Z,17.81
2022-10-15T11:55:03.274Z,17.88
2022-10-15T11:57:09.721Z,18.03
2022-10-15T11:59:17.832Z,17.72
2022-10-15T12:01:26.995Z,17.69
2022-10-15T12:03:36.608Z,17.80
2022-10-15T12:05:45.974Z,17.59
2022-10-15T12:07:50.792Z,17.50
2022-10-15T12:09:56.661Z,17.51
2022-10-15T12:12:08.278Z,17.52
2022-10-15T12:14:21.413Z,17.57
2022-10-15T12:16:31.135Z,17.54
2022-10-15T12:18:39.413Z,17.67
2022-10-15T12:20:44.238Z,17.68
2022-10-15T12:22:56.327Z,17.62
2022-10-15T12:24:58.959Z,17.62
2022-10-15T12:27:16.599Z,17.65
2022-10-15T12:29:23.090Z,17.59
2022-10-15T12:31:26.648Z,17.48
2022-10-15T12:33:37.612Z,17.46
2022-10-15T12:35:40.916Z,17.43
2022-10-15T12:37:47.928Z,17.45
2022-10-15T12:39:56.978Z,17.34
2022-10-15T12:42:00.989Z,17.27
2022-10-15T12:44:09.860Z,17.15
2022-10-15T12:46:13.688Z,17.08
2022-10-15T12:48:36.086Z,16.99
2022-10-15T12:50:38.822Z,17.07
2022-10-15T12:52:58.355Z,16.98
2022-10-15T12:55:22.350Z,17.05
2022-10-15T12:57:53.308Z,17.00
2022-10-15T12:59:58.107Z,16.99
2022-10-15T13:02:00.731Z,16.92
2022-10-15T13:04:03.699Z,16.92
2022-10-15T13:06:31.407Z,16.81
2022-10-15T13:08:35.460Z,16.79
2022-10-15T13:10:41.386Z,16.74
2022-10-15T13:12:44.168Z,16.79
2022-10-15T13:14:53.806Z,16.78
2022-10-15T13:16:57.785Z,16.79
2022-10-15T13:19:01.616Z,16.78
2022-10-15T13:21:05.376Z,16.82
2022-10-15T13:23:29.020Z,16.75
2022-10-15T13:25:33.838Z,16.72
2022-10-15T13:27:38.269Z,16.72
2022-10-15T13:29:40.959Z,16.77
2022-10-15T13:31:44.991Z,16.53
2022-10-15T13:33:51.882Z,16.50
2022-10-15T13:35:54.830Z,16.46
2022-10-15T13:37:58.071Z,16.40
2022-10-15T13:40:04.684Z,16.42
2022-10-15T13:42:17.426Z,16.27
2022-10-15T13:44:22.304Z,16.31
2022-10-15T13:46:25.739Z,16.25
2022-10-15T13:48:30.469Z,16.21
2022-10-15T13:50:35.879Z,16.19
2022-10-15T13:52:40.824Z,16.10
2022-10-15T13:54:46.376Z,16.18
2022-10-15T13:56:55.639Z,16.14
2022-10-15T13:59:01.129Z,16.12
2022-10-15T14:01:09.335Z,16.14
2022-10-15T14:03:18.883Z,16.08
2022-10-15T14:05:24.814Z,16.04
2022-10-15T14:07:28.175Z,16.11
2022-10-15T14:09:33.650Z,16.17
2022-10-15T14:11:36.464Z,16.24
2022-10-15T14:13:45.399Z,16.18
2022-10-15T14:15:57.527Z,16.27
2022-10-15T14:18:00.163Z,16.25
2022-10-15T14:20:28.258Z,16.22
2022-10-15T14:22:31.563Z,16.35
2022-10-15T14:24:36.101Z,16.39
2022-10-15T14:26:39.241Z,16.36
2022-10-15T14:28:42.981Z,16.49
2022-10-15T14:30:47.935Z,16.53
2022-10-15T14:32:52.703Z,16.50
2022-10-15T14:34:56.171Z,16.47
2022-10-15T14:36:58.924Z,16.52
2022-10-15T14:39:28.049Z,16.53
2022-10-15T14:41:34.310Z,16.59
2022-10-15T14:43:38.091Z,16.55
2022-10-15T14:45:44.821Z,16.58
2022-10-15T14:47:50.329Z,16.57
2022-10-15T14:49:57.902Z,16.60
2022-10-15T14:52:05.724Z,16.58
2022-10-15T14:54:19.561Z,16.54
2022-10-15T14:56:25.168Z,16.61
2022-10-15T14:58:29.586Z,16.65
2022-10-15T15:00:35.639Z,16.69
2022-10-15T15:02:38.334Z,16.69
2022-10-15T15:04:43.646Z,16.70
2022-10-15T15:06:47.638Z,16.77
2022-10-15T15:08:57.752Z,16.74
2022-10-15T15:11:02.949Z,16.80
2022-10-15T15:13:05.697Z,16.81
2022-10-15T15:15:16.242Z,16.87
2022-10-15T15:17:21.964Z,16.94
2022-10-15T15:19:24.661Z,16.99
2022-10-15T15:21:27.359Z,17.03
2022-10-15T15:23:31.350Z,17.16
2022-10-15T15:25:37.089Z,17.17
2022-10-15T15:27:39.932Z,17.24
2022-10-15T15:29:43.083Z,17.16
2022-10-15T15:31:45.898Z,17.20
2022-10-15T15:33:48.532Z,17.12
2022-10-15T15:35:54.168Z,17.14
2022-10-15T15:37:56.790Z,17.11
2022-10-15T15:39:59.378Z,17.13
2022-10-15T15:42:03.517Z,17.10
2022-10-15T15:44:07.424Z,17.12
2022-10-15T15:46:10.567Z,17.14
2022-10-15T15:48:14.140Z,17.07
2022-10-15T15:50:17.713Z,17.00
2022-10-15T15:52:20.372Z,16.89
2022-10-15T15:54:23.016Z,16.88
2022-10-15T15:56:26.503Z,16.88
2022-10-15T15:58:30.511Z,16.81
2022-10-15T16:00:33.135Z,16.73
2022-10-15T16:02:36.305Z,16.68
2022-10-15T16:04:38.947Z,16.66
2022-10-15T16:06:42.306Z,16.54
2022-10-15T16:08:44.974Z,16.55
2022-10-15T16:10:47.620Z,16.51
2022-10-15T16:12:50.273Z,16.48
2022-10-15T16:14:54.549Z,16.50
2022-10-15T16:16:57.158Z,16.53
2022-10-15T16:18:59.793Z,16.45
2022-10-15T16:21:02.415Z,16.41
2022-10-15T16:23:05.062Z,16.49
2022-10-15T16:25:08.987Z,16.45
2022-10-15T16:27:11.968Z,16.43
2022-10-15T16:29:16.852Z,16.34
2022-10-15T16:31:25.327Z,16.34
2022-10-15T16:33:30.584Z,16.28
2022-10-15T16:35:33.242Z,16.26
2022-10-15T16:37:36.129Z,16.31
2022-10-15T16:39:38.779Z,16.20
2022-10-15T16:41:41.455Z,16.23
2022-10-15T16:43:44.181Z,16.06
2022-10-15T16:45:55.707Z,16.14
2022-10-15T16:47:59.713Z,16.12
2022-10-15T16:50:02.818Z,16.16
2022-10-15T16:52:05.837Z,16.15
2022-10-15T16:54:08.468Z,16.07
2022-10-15T16:56:14.327Z,16.13
2022-10-15T16:58:16.958Z,16.12
2022-10-15T17:00:19.593Z,16.07
2022-10-15T17:02:22.320Z,16.07
2022-10-15T17:04:26.684Z,16.06
2022-10-15T17:06:31.975Z,16.04
2022-10-15T17:08:40.168Z,16.03
2022-10-15T17:10:45.190Z,16.02
2022-10-15T17:12:48.150Z,15.99
2022-10-15T17:14:51.879Z,15.92
2022-10-15T17:16:54.504Z,15.92
2022-10-15T17:18:58.111Z,15.88
2022-10-15T17:21:02.189Z,15.86
2022-10-15T17:23:04.792Z,15.87
2022-10-15T17:25:07.685Z,15.95
2022-10-15T17:27:10.323Z,15.94
2022-10-15T17:29:16.275Z,15.97
2022-10-15T17:31:20.909Z,15.99
2022-10-15T17:33:23.722Z,16.06
2022-10-15T17:35:26.420Z,15.97
2022-10-15T17:37:30.494Z,15.95
2022-10-15T17:39:33.169Z,15.97
2022-10-15T17:41:35.750Z,15.93
2022-10-15T17:43:40.111Z,15.96
2022-10-15T17:45:43.086Z,15.88
2022-10-15T17:47:45.768Z,15.62
2022-10-15T17:49:48.368Z,15.52
2022-10-15T17:51:51.295Z,15.54
2022-10-15T17:53:55.281Z,15.53
2022-10-15T17:55:58.407Z,15.54
2022-10-15T17:58:01.058Z,15.55
2022-10-15T18:00:03.786Z,15.63
2022-10-15T18:02:06.430Z,15.84
2022-10-15T18:04:09.080Z,15.84
2022-10-15T18:06:13.495Z,15.77
2022-10-15T18:08:16.250Z,15.78
2022-10-15T18:10:20.348Z,15.76
2022-10-15T18:12:23.032Z,15.71
2022-10-15T18:14:25.733Z,15.78
2022-10-15T18:16:28.507Z,15.87
2022-10-15T18:18:32.314Z,15.94
2022-10-15T18:20:34.914Z,15.95
2022-10-15T18:22:38.010Z,15.94
2022-10-15T18:24:40.638Z,16.01
2022-10-15T18:26:45.114Z,16.07
2022-10-15T18:28:49.531Z,16.03
2022-10-15T18:30:52.178Z,16.05
2022-10-15T18:32:57.333Z,16.09
2022-10-15T18:35:01.518Z,16.11
2022-10-15T18:37:04.330Z,16.08
2022-10-15T18:39:06.952Z,16.10
2022-10-15T18:41:14.369Z,16.08
2022-10-15T18:43:19.577Z,16.07
2022-10-15T18:45:22.420Z,16.02
2022-10-15T18:47:25.072Z,16.03
2022-10-15T18:49:27.722Z,15.98
2022-10-15T18:51:31.061Z,15.98
2022-10-15T18:53:35.284Z,15.97
2022-10-15T18:55:38.692Z,16.04
2022-10-15T18:57:41.445Z,15.98
2022-10-15T18:59:47.350Z,15.98
2022-10-15T19:01:50.726Z,16.00
2022-10-15T19:03:53.825Z,15.99
2022-10-15T19:05:56.474Z,15.98
2022-10-15T19:07:59.221Z,15.97
2022-10-15T19:10:01.853Z,15.96
2022-10-15T19:12:05.595Z,15.97
2022-10-15T19:14:08.403Z,16.01
2022-10-15T19:16:12.711Z,16.04
2022-10-15T19:18:16.550Z,16.06
2022-10-15T19:20:19.204Z,16.07
2022-10-15T19:22:21.968Z,16.05
2022-10-15T19:24:25.154Z,16.05
2022-10-15T19:26:28.425Z,16.01
2022-10-15T19:28:31.063Z,15.97
2022-10-15T19:30:34.044Z,16.01
2022-10-15T19:32:38.178Z,15.99
2022-10-15T19:34:40.849Z,15.97
2022-10-15T19:36:46.371Z,15.92
2022-10-15T19:38:49.108Z,15.93
2022-10-15T19:40:52.378Z,15.96
2022-10-15T19:42:55.003Z,15.93
2022-10-15T19:44:57.606Z,15.91
2022-10-15T19:47:00.258Z,15.88
2022-10-15T19:49:04.999Z,15.94
2022-10-15T19:51:07.954Z,15.89
2022-10-15T19:53:12.545Z,15.93
2022-10-15T19:55:15.438Z,15.84
2022-10-15T19:57:18.061Z,15.83
2022-10-15T19:59:20.735Z,15.84
2022-10-15T20:01:23.720Z,15.76
2022-10-15T20:03:28.148Z,15.74
2022-10-15T20:05:32.277Z,15.83
2022-10-15T20:07:35.154Z,15.77
2022-10-15T20:09:37.871Z,15.73
2022-10-15T20:11:40.575Z,15.84
2022-10-15T20:13:43.353Z,15.77
2022-10-15T20:15:49.044Z,15.76
2022-10-15T20:17:51.633Z,15.80
2022-10-15T20:19:54.585Z,15.78
2022-10-15T20:21:58.583Z,15.84
2022-10-15T20:24:04.252Z,15.81
2022-10-15T20:26:08.833Z,15.82
2022-10-15T20:28:12.575Z,15.86
2022-10-15T20:30:15.574Z,15.85
2022-10-15T20:32:30.299Z,15.92
2022-10-15T20:34:36.333Z,15.90
2022-10-15T20:36:41.253Z,15.89
2022-10-15T20:38:45.551Z,15.86
2022-10-15T20:40:48.214Z,15.89
2022-10-15T20:42:50.985Z,15.84
2022-10-15T20:44:53.681Z,15.84
2022-10-15T20:47:01.080Z,15.74
2022-10-15T20:49:09.160Z,15.68
2022-10-15T20:51:14.872Z,15.77
2022-10-15T20:53:18.632Z,15.64
2022-10-15T20:55:23.123Z,15.54
2022-10-15T20:57:25.809Z,15.57
2022-10-15T20:59:30.334Z,15.54
2022-10-15T21:01:33.405Z,15.43
2022-10-15T21:03:36.063Z,15.44
2022-10-15T21:05:38.707Z,15.45
2022-10-15T21:07:41.325Z,15.48
2022-10-15T21:09:43.971Z,15.40
2022-10-15T21:11:48.063Z,15.37
2022-10-15T21:13:50.903Z,15.39
2022-10-15T21:15:58.442Z,15.41
2022-10-15T21:18:01.185Z,15.45
2022-10-15T21:20:03.940Z,15.40
2022-10-15T21:22:06.710Z,15.40
2022-10-15T21:24:09.386Z,15.34
2022-10-15T21:26:13.919Z,15.34
2022-10-15T21:28:18.096Z,15.39
2022-10-15T21:30:20.783Z,15.33
2022-10-15T21:32:23.474Z,15.42
2022-10-15T21:34:27.811Z,15.33
2022-10-15T21:36:30.597Z,15.39
2022-10-15T21:38:33.231Z,15.37
2022-10-15T21:40:35.928Z,15.48
2022-10-15T21:42:38.578Z,15.36
2022-10-15T21:44:42.535Z,15.29
2022-10-15T21:46:45.359Z,15.26
2022-10-15T21:48:48.260Z,15.27
2022-10-15T21:50:50.941Z,15.37
2022-10-15T21:52:53.622Z,15.27
2022-10-15T21:54:56.288Z,15.28
2022-10-15T21:56:58.939Z,15.16
2022-10-15T21:59:02.145Z,15.13
2022-10-15T22:01:13.474Z,15.07
2022-10-15T22:03:18.320Z,15.06
2022-10-15T22:05:21.049Z,15.06
2022-10-15T22:07:24.039Z,15.11
2022-10-15T22:09:27.136Z,15.12
2022-10-15T22:11:31.317Z,15.13
2022-10-15T22:13:34.008Z,15.18
2022-10-15T22:15:36.646Z,15.17
2022-10-15T22:17:40.612Z,15.17
2022-10-15T22:19:43.286Z,15.09
2022-10-15T22:21:46.353Z,15.08
2022-10-15T22:23:50.724Z,15.43
2022-10-15T22:25:58.829Z,15.50
2022-10-15T22:28:01.411Z,15.20
2022-10-15T22:30:04.686Z,15.20
2022-10-15T22:32:07.674Z,15.35
2022-10-15T22:34:11.904Z,15.35
2022-10-15T22:36:16.335Z,15.18
2022-10-15T22:38:19.009Z,15.18
2022-10-15T22:40:22.778Z,15.34
2022-10-15T22:42:25.712Z,15.37
2022-10-15T22:44:28.810Z,15.40
2022-10-15T22:46:33.752Z,15.43
2022-10-15T22:48:37.233Z,15.23
2022-10-15T22:50:41.677Z,15.21
2022-10-15T22:52:44.281Z,15.15
2022-10-15T22:54:46.897Z,15.11
2022-10-15T22:56:50.189Z,15.11
2022-10-15T22:58:53.548Z,14.97
2022-10-15T23:00:56.173Z,14.92
2022-10-15T23:02:58.885Z,14.95
2022-10-15T23:05:01.438Z,14.94
2022-10-15T23:07:05.533Z,14.98
2022-10-15T23:09:09.232Z,15.15
2022-10-15T23:11:14.543Z,15.21
2022-10-15T23:13:17.216Z,15.03
2022-10-15T23:15:19.814Z,15.13
2022-10-15T23:19:29.899Z,15.18
2022-10-15T23:21:34.369Z,15.23
2022-10-15T23:23:38.511Z,15.28
2022-10-15T23:25:41.100Z,15.19
2022-10-15T23:27:43.735Z,15.44
2022-10-15T23:29:53.465Z,15.10
2022-10-15T23:32:04.693Z,15.17
2022-10-15T23:34:07.629Z,15.12
2022-10-15T23:36:10.477Z,15.17
2022-10-15T23:38:14.381Z,15.20
2022-10-15T23:40:18.459Z,15.23
2022-10-15T23:42:21.059Z,15.30
2022-10-15T23:44:26.645Z,15.24
2022-10-15T23:46:29.368Z,15.29
2022-10-15T23:48:32.236Z,15.30
2022-10-15T23:50:35.784Z,15.37
2022-10-15T23:52:38.451Z,15.31
2022-10-15T23:54:41.254Z,15.29
2022-10-15T23:56:46.091Z,15.34
2022-10-15T23:58:50.014Z,15.30
